createdAt,value
2022-12-31T00:00:16.525Z,84.37
2022-12-31T00:00:51.427Z,84.57
2022-12-31T00:01:25.140Z,84.49
2022-12-31T00:01:57.886Z,84.47
2022-12-31T00:02:33.117Z,84.71
2022-12-31T00:03:05.432Z,84.37
2022-12-31T00:03:37.998Z,84.56
2022-12-31T00:04:12.749Z,84.94
2022-12-31T00:04:45.052Z,84.71
2022-12-31T00:05:17.341Z,84.77
2022-12-31T00:05:52.072Z,84.72
2022-12-31T00:06:26.592Z,84.89
2022-12-31T00:06:58.866Z,84.65
2022-12-31T00:08:05.047Z,85.07
2022-12-31T00:08:37.209Z,84.77
2022-12-31T00:09:13.078Z,85.02
2022-12-31T00:09:45.476Z,85.33
2022-12-31T00:10:17.763Z,84.99
2022-12-31T00:10:52.613Z,85.03
2022-12-31T00:11:26.031Z,84.98
2022-12-31T00:11:58.218Z,84.86
2022-12-31T00:12:32.979Z,84.90
2022-12-31T00:13:07.900Z,85.07
2022-12-31T00:13:43.235Z,85.20
2022-12-31T00:14:16.095Z,84.73
2022-12-31T00:14:48.224Z,85.10
2022-12-31T00:15:23.251Z,84.68
2022-12-31T00:15:55.336Z,84.76
2022-12-31T00:16:31.868Z,84.89
2022-12-31T00:17:04.128Z,84.84
2022-12-31T00:17:36.365Z,84.55
2022-12-31T00:18:11.759Z,84.96
2022-12-31T00:18:44.363Z,84.58
2022-12-31T00:19:16.447Z,84.78
2022-12-31T00:19:51.177Z,85.04
2022-12-31T00:20:23.344Z,84.84
2022-12-31T00:20:55.727Z,84.96
2022-12-31T00:21:32.485Z,85.04
2022-12-31T00:22:04.642Z,85.16
2022-12-31T00:22:38.069Z,84.99
2022-12-31T00:23:13.442Z,84.90
2022-12-31T00:23:46.082Z,85.09
2022-12-31T00:24:20.748Z,84.95
2022-12-31T00:24:53.299Z,85.02
2022-12-31T00:25:25.625Z,84.93
2022-12-31T00:26:04.441Z,84.74
2022-12-31T00:26:37.033Z,84.81
2022-12-31T00:27:11.809Z,85.21
2022-12-31T00:27:43.898Z,85.00
2022-12-31T00:28:18.580Z,84.98
2022-12-31T00:28:54.195Z,85.08
2022-12-31T00:29:26.298Z,84.88
2022-12-31T00:30:04.245Z,84.77
2022-12-31T00:30:39.552Z,84.97
2022-12-31T00:31:13.604Z,84.74
2022-12-31T00:31:45.758Z,85.21
2022-12-31T00:32:20.536Z,85.29
2022-12-31T00:32:53.524Z,85.13
2022-12-31T00:33:25.664Z,85.03
2022-12-31T00:34:00.752Z,84.85
2022-12-31T00:34:32.855Z,85.15
2022-12-31T00:35:06.177Z,85.33
2022-12-31T00:35:40.849Z,84.84
2022-12-31T00:36:15.293Z,84.82
2022-12-31T00:36:47.454Z,84.98
2022-12-31T00:37:22.137Z,85.00
2022-12-31T00:37:54.333Z,84.85
2022-12-31T00:38:26.404Z,84.99
2022-12-31T00:39:02.727Z,85.21
2022-12-31T00:39:34.901Z,84.92
2022-12-31T00:40:09.030Z,85.13
2022-12-31T00:40:43.722Z,85.12
2022-12-31T00:41:16.913Z,84.81
2022-12-31T00:41:51.602Z,85.20
2022-12-31T00:42:23.766Z,84.90
2022-12-31T00:42:56.003Z,85.08
2022-12-31T00:43:30.782Z,84.87
2022-12-31T00:44:05.786Z,85.17
2022-12-31T00:44:37.871Z,84.89
2022-12-31T00:45:10.944Z,84.97
2022-12-31T00:45:45.643Z,84.97
2022-12-31T00:46:18.603Z,85.11
2022-12-31T00:46:50.913Z,84.93
2022-12-31T00:47:26.504Z,84.82
2022-12-31T00:47:58.667Z,84.81
2022-12-31T00:48:31.016Z,84.89
2022-12-31T00:49:05.740Z,85.18
2022-12-31T00:49:37.952Z,84.72
2022-12-31T00:50:10.412Z,85.04
2022-12-31T00:50:45.159Z,84.66
2022-12-31T00:51:19.562Z,84.95
2022-12-31T00:51:54.519Z,84.87
2022-12-31T00:52:26.586Z,84.97
2022-12-31T00:52:58.719Z,84.91
2022-12-31T00:53:33.639Z,84.70
2022-12-31T00:54:06.097Z,84.70
2022-12-31T00:54:38.388Z,84.80
2022-12-31T00:55:13.128Z,85.04
2022-12-31T00:55:45.199Z,85.06
2022-12-31T00:56:20.212Z,84.81
2022-12-31T00:56:54.934Z,84.71
2022-12-31T00:57:27.017Z,84.92
2022-12-31T00:57:59.160Z,85.21
2022-12-31T00:58:36.513Z,84.87
2022-12-31T00:59:08.616Z,84.88
2022-12-31T00:59:40.741Z,85.01
2022-12-31T01:00:17.045Z,84.92
2022-12-31T01:00:49.132Z,85.06
2022-12-31T01:01:23.080Z,84.80
2022-12-31T01:01:58.033Z,85.33
2022-12-31T01:02:30.371Z,85.16
2022-12-31T01:03:02.692Z,85.29
2022-12-31T01:03:37.485Z,85.26
2022-12-31T01:04:12.436Z,85.15
2022-12-31T01:04:47.423Z,84.95
2022-12-31T01:05:19.515Z,84.83
2022-12-31T01:05:51.658Z,85.04
2022-12-31T01:06:26.650Z,84.85
2022-12-31T01:06:58.781Z,85.03
2022-12-31T01:07:33.472Z,85.15
2022-12-31T01:08:06.137Z,85.09
2022-12-31T01:08:38.345Z,85.33
2022-12-31T01:09:14.705Z,85.35
2022-12-31T01:09:46.820Z,84.94
2022-12-31T01:10:40.268Z,85.11
2022-12-31T01:11:19.331Z,84.97
2022-12-31T01:11:54.518Z,85.35
2022-12-31T01:12:26.644Z,85.15
2022-12-31T01:12:59.760Z,85.29
2022-12-31T01:13:37.138Z,85.44
2022-12-31T01:14:11.100Z,85.17
2022-12-31T01:14:47.075Z,85.20
2022-12-31T01:15:19.177Z,85.44
2022-12-31T01:15:51.416Z,85.47
2022-12-31T01:16:28.583Z,85.45
2022-12-31T01:17:00.756Z,85.12
2022-12-31T01:17:35.562Z,85.33
2022-12-31T01:18:08.899Z,85.42
2022-12-31T01:18:41.162Z,85.12
2022-12-31T01:19:18.561Z,85.24
2022-12-31T01:19:50.948Z,85.53
2022-12-31T01:20:23.066Z,85.39
2022-12-31T01:20:55.250Z,85.52
2022-12-31T01:21:30.106Z,85.10
2022-12-31T01:22:02.324Z,85.54
2022-12-31T01:22:37.086Z,84.98
2022-12-31T01:23:10.866Z,85.30
2022-12-31T01:23:42.997Z,85.52
2022-12-31T01:24:18.510Z,85.67
2022-12-31T01:24:50.662Z,85.40
2022-12-31T01:25:22.759Z,85.37
2022-12-31T01:25:57.433Z,85.32
2022-12-31T01:26:30.033Z,85.42
2022-12-31T01:27:04.794Z,85.63
2022-12-31T01:27:36.923Z,85.63
2022-12-31T01:28:09.720Z,85.23
2022-12-31T01:28:47.023Z,85.39
2022-12-31T01:29:19.391Z,85.44
2022-12-31T01:29:51.473Z,85.49
2022-12-31T01:30:26.130Z,85.75
2022-12-31T01:30:59.013Z,85.34
2022-12-31T01:31:31.475Z,85.33
2022-12-31T01:32:06.469Z,85.63
2022-12-31T01:32:38.571Z,85.35
2022-12-31T01:33:10.710Z,85.73
2022-12-31T01:33:45.961Z,85.45
2022-12-31T01:34:18.072Z,85.42
2022-12-31T01:34:50.161Z,85.43
2022-12-31T01:35:24.927Z,85.39
2022-12-31T01:36:02.417Z,85.25
2022-12-31T01:36:38.548Z,85.39
2022-12-31T01:37:10.706Z,85.73
2022-12-31T01:37:42.799Z,85.43
2022-12-31T01:38:21.311Z,85.11
2022-12-31T01:38:54.482Z,85.47
2022-12-31T01:39:29.441Z,85.23
2022-12-31T01:40:01.614Z,85.42
2022-12-31T01:40:37.571Z,85.70
2022-12-31T01:41:12.778Z,85.62
2022-12-31T01:41:49.544Z,85.84
2022-12-31T01:42:21.687Z,85.65
2022-12-31T01:42:57.650Z,85.56
2022-12-31T01:43:50.615Z,85.78
2022-12-31T01:44:48.943Z,85.69
2022-12-31T01:45:21.365Z,86.00
2022-12-31T01:45:57.361Z,85.72
2022-12-31T01:46:36.613Z,85.62
2022-12-31T01:47:15.680Z,85.49
2022-12-31T01:47:54.644Z,85.71
2022-12-31T01:48:28.629Z,85.94
2022-12-31T01:49:05.034Z,85.97
2022-12-31T01:49:43.391Z,85.92
2022-12-31T01:50:20.328Z,85.84
2022-12-31T01:50:56.535Z,85.77
2022-12-31T01:51:31.523Z,85.92
2022-12-31T01:52:08.968Z,85.97
2022-12-31T01:52:48.237Z,86.00
2022-12-31T01:53:21.164Z,85.69
2022-12-31T01:53:53.535Z,86.05
2022-12-31T01:54:30.025Z,85.63
2022-12-31T01:55:08.107Z,85.56
2022-12-31T01:55:50.098Z,86.00
2022-12-31T01:56:23.963Z,85.55
2022-12-31T01:56:57.492Z,85.66
2022-12-31T01:57:32.883Z,86.02
2022-12-31T01:58:10.474Z,85.79
2022-12-31T01:58:51.327Z,85.73
2022-12-31T01:59:25.730Z,85.82
2022-12-31T01:59:59.888Z,86.11
2022-12-31T02:00:35.194Z,86.23
2022-12-31T02:01:09.370Z,86.12
2022-12-31T02:01:41.672Z,86.24
2022-12-31T02:02:18.503Z,86.16
2022-12-31T02:02:51.169Z,86.18
2022-12-31T02:03:24.428Z,85.87
2022-12-31T02:04:00.089Z,86.10
2022-12-31T02:04:32.272Z,86.18
2022-12-31T02:05:13.669Z,86.22
2022-12-31T02:05:53.807Z,85.73
2022-12-31T02:06:32.438Z,86.01
2022-12-31T02:07:09.688Z,85.93
2022-12-31T02:07:43.398Z,85.79
2022-12-31T02:08:18.729Z,85.90
2022-12-31T02:08:51.098Z,85.99
2022-12-31T02:09:23.424Z,85.95
2022-12-31T02:09:58.210Z,85.81
2022-12-31T02:10:30.307Z,85.99
2022-12-31T02:11:02.474Z,85.95
2022-12-31T02:11:38.359Z,85.99
2022-12-31T02:12:11.115Z,86.32
2022-12-31T02:12:43.372Z,85.83
2022-12-31T02:13:18.716Z,86.06
2022-12-31T02:13:58.635Z,86.27
2022-12-31T02:14:36.574Z,86.35
2022-12-31T02:15:09.747Z,86.35
2022-12-31T02:15:52.275Z,86.41
2022-12-31T02:16:34.604Z,86.51
2022-12-31T02:17:14.939Z,86.07
2022-12-31T02:17:56.445Z,86.38
2022-12-31T02:18:37.544Z,86.31
2022-12-31T02:19:38.498Z,86.06
2022-12-31T02:20:26.878Z,86.45
2022-12-31T02:21:36.364Z,86.19
2022-12-31T02:22:18.072Z,86.36
2022-12-31T02:23:11.093Z,86.56
2022-12-31T02:24:12.603Z,86.38
2022-12-31T02:25:04.984Z,86.85
2022-12-31T02:25:53.526Z,86.52
2022-12-31T02:26:43.395Z,86.58
2022-12-31T02:27:31.878Z,86.63
2022-12-31T02:28:20.189Z,86.67
2022-12-31T02:29:17.828Z,86.77
2022-12-31T02:30:11.365Z,86.85
2022-12-31T02:30:48.097Z,86.49
2022-12-31T02:31:26.829Z,86.67
2022-12-31T02:32:05.646Z,86.46
2022-12-31T02:32:58.356Z,86.62
2022-12-31T02:33:38.409Z,86.64
2022-12-31T02:34:16.471Z,86.61
2022-12-31T02:34:52.664Z,86.54
2022-12-31T02:35:32.400Z,86.65
2022-12-31T02:36:11.353Z,86.71
2022-12-31T02:36:47.312Z,86.75
2022-12-31T02:37:24.758Z,86.83
2022-12-31T02:38:01.935Z,86.84
2022-12-31T02:38:43.290Z,86.72
2022-12-31T02:39:16.005Z,86.86
2022-12-31T02:39:49.257Z,86.67
2022-12-31T02:40:23.017Z,86.58
2022-12-31T02:40:57.979Z,86.91
2022-12-31T02:41:45.140Z,86.78
2022-12-31T02:42:17.431Z,86.64
2022-12-31T02:42:55.542Z,86.82
2022-12-31T02:43:28.427Z,86.63
2022-12-31T02:44:00.746Z,86.90
2022-12-31T02:44:37.931Z,86.67
2022-12-31T02:45:16.441Z,86.50
2022-12-31T02:46:00.978Z,86.56
2022-12-31T02:46:43.051Z,87.01
2022-12-31T02:47:23.135Z,87.03
2022-12-31T02:48:09.051Z,86.82
2022-12-31T02:48:49.277Z,86.68
2022-12-31T02:49:31.628Z,86.68
2022-12-31T02:50:18.867Z,86.95
2022-12-31T02:50:58.211Z,86.87
2022-12-31T02:51:42.831Z,86.65
2022-12-31T02:52:22.843Z,87.07
2022-12-31T02:53:02.970Z,86.88
2022-12-31T02:54:05.664Z,86.71
2022-12-31T02:54:48.892Z,87.09
2022-12-31T02:55:33.719Z,87.29
2022-12-31T02:56:12.791Z,87.14
2022-12-31T02:56:59.567Z,87.13
2022-12-31T02:57:44.093Z,87.19
2022-12-31T02:58:48.090Z,87.41
2022-12-31T02:59:38.476Z,87.23
2022-12-31T03:00:30.888Z,87.08
2022-12-31T03:01:18.192Z,87.17
2022-12-31T03:02:10.470Z,87.16
2022-12-31T03:02:48.444Z,87.28
2022-12-31T03:03:21.725Z,87.19
2022-12-31T03:04:14.094Z,87.30
2022-12-31T03:04:53.164Z,87.33
2022-12-31T03:05:29.536Z,87.45
2022-12-31T03:06:03.364Z,87.11
2022-12-31T03:06:35.682Z,86.94
2022-12-31T03:07:12.801Z,87.42
2022-12-31T03:07:45.761Z,87.23
2022-12-31T03:08:22.624Z,87.10
2022-12-31T03:09:09.832Z,87.35
2022-12-31T03:09:44.697Z,87.42
2022-12-31T03:10:17.139Z,87.43
2022-12-31T03:10:49.513Z,87.66
2022-12-31T03:11:36.445Z,87.40
2022-12-31T03:12:35.184Z,87.34
2022-12-31T03:13:09.883Z,87.29
2022-12-31T03:13:42.009Z,87.27
2022-12-31T03:14:14.289Z,87.49
2022-12-31T03:14:46.593Z,87.44
2022-12-31T03:15:26.262Z,87.20
2022-12-31T03:15:58.357Z,87.18
2022-12-31T03:16:30.568Z,87.14
2022-12-31T03:17:05.271Z,87.05
2022-12-31T03:17:37.394Z,87.33
2022-12-31T03:18:14.149Z,87.21
2022-12-31T03:19:02.151Z,87.26
2022-12-31T03:19:49.330Z,87.14
2022-12-31T03:20:39.420Z,87.20
2022-12-31T03:21:28.645Z,86.87
2022-12-31T03:22:15.785Z,86.90
2022-12-31T03:22:47.876Z,87.18
2022-12-31T03:23:25.395Z,87.13
2022-12-31T03:24:12.794Z,86.91
2022-12-31T03:25:00.062Z,87.36
2022-12-31T03:25:35.367Z,87.11
2022-12-31T03:26:10.094Z,87.10
2022-12-31T03:26:42.206Z,87.17
2022-12-31T03:27:14.307Z,87.10
2022-12-31T03:27:47.335Z,87.15
2022-12-31T03:28:24.674Z,87.27
2022-12-31T03:28:56.765Z,86.80
2022-12-31T03:29:28.851Z,87.23
2022-12-31T03:30:00.944Z,86.81
2022-12-31T03:30:40.268Z,87.22
2022-12-31T03:31:12.557Z,87.31
2022-12-31T03:31:44.711Z,87.20
2022-12-31T03:32:17.035Z,86.96
2022-12-31T03:32:52.400Z,87.12
2022-12-31T03:33:25.881Z,87.42
2022-12-31T03:34:00.575Z,87.35
2022-12-31T03:34:32.669Z,86.99
2022-12-31T03:35:06.477Z,87.38
2022-12-31T03:35:42.681Z,87.45
2022-12-31T03:36:15.774Z,87.45
2022-12-31T03:36:47.926Z,87.43
2022-12-31T03:37:22.582Z,87.33
2022-12-31T03:37:54.907Z,87.13
2022-12-31T03:38:29.582Z,87.47
2022-12-31T03:39:01.679Z,87.54
2022-12-31T03:39:33.977Z,87.35
2022-12-31T03:40:08.488Z,87.31
2022-12-31T03:40:44.548Z,87.33
2022-12-31T03:41:16.678Z,87.50
2022-12-31T03:41:48.752Z,87.52
2022-12-31T03:42:20.859Z,87.15
2022-12-31T03:42:55.856Z,87.46
2022-12-31T03:43:27.988Z,87.07
2022-12-31T03:44:00.131Z,87.37
2022-12-31T03:44:34.801Z,87.09
2022-12-31T03:45:10.607Z,87.12
2022-12-31T03:45:47.988Z,87.14
2022-12-31T03:46:20.331Z,87.32
2022-12-31T03:46:52.456Z,87.18
2022-12-31T03:47:24.535Z,87.42
2022-12-31T03:47:59.292Z,87.15
2022-12-31T03:48:31.420Z,87.57
2022-12-31T03:49:03.525Z,87.54
2022-12-31T03:49:35.628Z,87.62
2022-12-31T03:50:12.366Z,87.05
2022-12-31T03:50:44.836Z,87.24
2022-12-31T03:51:16.971Z,87.33
2022-12-31T03:51:51.677Z,87.50
2022-12-31T03:52:23.897Z,87.30
2022-12-31T03:52:58.786Z,87.43
2022-12-31T03:53:30.923Z,87.33
2022-12-31T03:54:03.076Z,87.16
2022-12-31T03:54:37.783Z,87.49
2022-12-31T03:55:11.320Z,87.35
2022-12-31T03:55:46.123Z,87.12
2022-12-31T03:56:18.263Z,87.07
2022-12-31T03:56:53.004Z,87.11
2022-12-31T03:57:30.039Z,87.05
2022-12-31T03:58:02.129Z,87.03
2022-12-31T03:58:36.831Z,87.48
2022-12-31T03:59:08.892Z,87.05
2022-12-31T03:59:41.049Z,87.12
2022-12-31T04:00:20.413Z,87.34
2022-12-31T04:00:55.113Z,86.97
2022-12-31T04:01:27.548Z,87.46
2022-12-31T04:01:59.849Z,87.24
2022-12-31T04:02:34.928Z,86.85
2022-12-31T04:03:07.179Z,87.24
2022-12-31T04:03:42.023Z,86.88
2022-12-31T04:04:14.115Z,87.29
2022-12-31T04:04:46.208Z,86.82
2022-12-31T04:05:22.477Z,87.27
2022-12-31T04:05:55.464Z,87.24
2022-12-31T04:06:27.725Z,87.07
2022-12-31T04:07:02.519Z,87.12
2022-12-31T04:07:34.748Z,86.87
2022-12-31T04:08:09.425Z,87.06
2022-12-31T04:08:41.561Z,87.23
2022-12-31T04:09:13.707Z,87.12
2022-12-31T04:09:48.381Z,86.94
2022-12-31T04:10:20.981Z,87.05
2022-12-31T04:10:55.720Z,87.15
2022-12-31T04:11:27.824Z,86.95
2022-12-31T04:11:59.931Z,87.00
2022-12-31T04:12:36.300Z,87.00
2022-12-31T04:13:08.414Z,87.29
2022-12-31T04:13:40.539Z,87.36
2022-12-31T04:14:12.649Z,87.14
2022-12-31T04:14:47.324Z,87.22
2022-12-31T04:15:21.060Z,87.19
2022-12-31T04:15:58.401Z,87.35
2022-12-31T04:16:32.335Z,87.04
2022-12-31T04:17:04.837Z,87.16
2022-12-31T04:17:39.605Z,87.19
2022-12-31T04:18:11.719Z,87.49
2022-12-31T04:18:43.846Z,87.46
2022-12-31T04:19:18.573Z,87.34
2022-12-31T04:19:50.704Z,87.37
2022-12-31T04:20:25.467Z,87.22
2022-12-31T04:21:02.079Z,87.34
2022-12-31T04:21:35.302Z,87.32
2022-12-31T04:22:10.569Z,87.30
2022-12-31T04:22:42.735Z,87.38
2022-12-31T04:23:19.461Z,87.48
2022-12-31T04:23:51.567Z,87.52
2022-12-31T04:24:24.112Z,87.62
2022-12-31T04:24:58.763Z,87.64
2022-12-31T04:25:30.882Z,87.38
2022-12-31T04:26:02.993Z,87.37
2022-12-31T04:26:38.077Z,87.44
2022-12-31T04:27:10.278Z,87.27
2022-12-31T04:27:43.958Z,87.33
2022-12-31T04:28:18.721Z,87.24
2022-12-31T04:28:50.796Z,87.13
2022-12-31T04:29:23.117Z,87.09
2022-12-31T04:29:57.804Z,87.45
2022-12-31T04:30:29.913Z,87.67
2022-12-31T04:31:04.731Z,87.29
2022-12-31T04:31:36.951Z,87.71
2022-12-31T04:32:12.553Z,87.56
2022-12-31T04:32:44.841Z,87.68
2022-12-31T04:33:17.433Z,87.42
2022-12-31T04:33:49.604Z,87.25
2022-12-31T04:34:24.659Z,87.32
2022-12-31T04:34:56.840Z,87.70
2022-12-31T04:35:28.979Z,87.25
2022-12-31T04:36:04.149Z,87.54
2022-12-31T04:36:36.368Z,87.28
2022-12-31T04:37:11.084Z,87.37
2022-12-31T04:37:43.222Z,87.67
2022-12-31T04:38:15.464Z,87.31
2022-12-31T04:38:50.189Z,87.44
2022-12-31T04:39:22.338Z,87.51
2022-12-31T04:39:57.930Z,87.35
2022-12-31T04:40:56.669Z,87.67
2022-12-31T04:41:29.004Z,87.32
2022-12-31T04:42:01.106Z,87.52
2022-12-31T04:42:35.879Z,87.25
2022-12-31T04:43:08.023Z,87.35
2022-12-31T04:43:40.186Z,87.45
2022-12-31T04:44:14.965Z,87.78
2022-12-31T04:44:47.084Z,87.52
2022-12-31T04:45:21.795Z,87.32
2022-12-31T04:45:54.009Z,87.70
2022-12-31T04:46:30.818Z,87.65
2022-12-31T04:47:05.524Z,87.35
2022-12-31T04:47:37.684Z,87.80
2022-12-31T04:48:10.035Z,87.28
2022-12-31T04:48:42.332Z,87.57
2022-12-31T04:49:18.211Z,87.73
2022-12-31T04:49:50.319Z,87.37
2022-12-31T04:50:22.460Z,87.64
2022-12-31T04:50:57.127Z,87.62
2022-12-31T04:51:30.791Z,87.65
2022-12-31T04:52:05.942Z,87.57
2022-12-31T04:52:42.751Z,87.35
2022-12-31T04:53:15.281Z,87.32
2022-12-31T04:53:50.320Z,87.74
2022-12-31T04:54:22.599Z,87.72
2022-12-31T04:54:57.301Z,87.39
2022-12-31T04:55:29.491Z,87.68
2022-12-31T04:56:01.782Z,87.25
2022-12-31T04:56:37.006Z,87.74
2022-12-31T04:57:09.114Z,87.39
2022-12-31T04:57:41.725Z,87.65
2022-12-31T04:58:13.811Z,87.47
2022-12-31T04:58:48.571Z,87.32
2022-12-31T04:59:20.715Z,87.32
2022-12-31T04:59:52.844Z,87.60
2022-12-31T05:00:27.552Z,87.71
2022-12-31T05:00:59.911Z,87.49
2022-12-31T05:01:37.393Z,87.25
2022-12-31T05:02:09.844Z,87.48
2022-12-31T05:02:42.226Z,87.36
2022-12-31T05:03:14.492Z,87.38
2022-12-31T05:03:49.669Z,87.62
2022-12-31T05:04:21.757Z,87.60
2022-12-31T05:04:53.895Z,87.61
2022-12-31T05:05:28.613Z,87.02
2022-12-31T05:06:02.136Z,87.03
2022-12-31T05:06:34.238Z,87.23
2022-12-31T05:07:09.181Z,87.34
2022-12-31T05:07:41.273Z,87.46
2022-12-31T05:08:14.195Z,87.35
2022-12-31T05:08:49.558Z,87.10
2022-12-31T05:09:24.218Z,87.38
2022-12-31T05:09:56.392Z,86.89
2022-12-31T05:10:31.575Z,87.29
2022-12-31T05:11:03.892Z,87.09
2022-12-31T05:11:37.977Z,87.12
2022-12-31T05:12:12.625Z,87.11
2022-12-31T05:12:44.723Z,87.21
2022-12-31T05:13:17.153Z,87.34
2022-12-31T05:13:51.838Z,87.26
2022-12-31T05:14:24.059Z,87.20
2022-12-31T05:14:56.334Z,87.04
2022-12-31T05:15:31.078Z,87.20
2022-12-31T05:16:04.242Z,86.94
2022-12-31T05:16:41.529Z,86.97
2022-12-31T05:17:13.700Z,87.07
2022-12-31T05:17:45.859Z,87.07
2022-12-31T05:18:18.363Z,86.73
2022-12-31T05:18:53.031Z,87.11
2022-12-31T05:19:26.242Z,87.01
2022-12-31T05:19:58.384Z,87.07
2022-12-31T05:20:33.236Z,87.06
2022-12-31T05:21:06.512Z,86.76
2022-12-31T05:21:41.260Z,86.82
2022-12-31T05:22:28.511Z,86.95
2022-12-31T05:23:00.855Z,87.24
2022-12-31T05:23:35.586Z,86.81
2022-12-31T05:24:08.472Z,87.06
2022-12-31T05:24:40.577Z,86.91
2022-12-31T05:25:15.253Z,87.11
2022-12-31T05:25:48.517Z,87.11
2022-12-31T05:26:23.326Z,86.94
2022-12-31T05:26:55.504Z,87.06
2022-12-31T05:27:31.202Z,87.13
2022-12-31T05:28:06.500Z,86.88
2022-12-31T05:28:38.938Z,87.38
2022-12-31T05:29:13.655Z,86.97
2022-12-31T05:29:45.762Z,87.23
2022-12-31T05:30:18.761Z,87.25
2022-12-31T05:30:54.370Z,86.98
2022-12-31T05:31:27.035Z,87.26
2022-12-31T05:32:01.817Z,87.11
2022-12-31T05:32:37.527Z,86.92
2022-12-31T05:33:09.829Z,87.10
2022-12-31T05:33:41.992Z,87.28
2022-12-31T05:34:16.737Z,87.21
2022-12-31T05:34:48.842Z,87.22
2022-12-31T05:35:20.963Z,87.30
2022-12-31T05:35:57.995Z,86.89
2022-12-31T05:36:32.121Z,86.86
2022-12-31T05:37:04.335Z,86.86
2022-12-31T05:37:36.665Z,87.22
2022-12-31T05:38:11.610Z,87.34
2022-12-31T05:38:43.758Z,87.20
2022-12-31T05:39:15.998Z,87.14
2022-12-31T05:39:50.747Z,87.15
2022-12-31T05:40:23.077Z,87.12
2022-12-31T05:41:02.841Z,86.88
2022-12-31T05:41:37.675Z,86.87
2022-12-31T05:42:09.789Z,87.14
2022-12-31T05:42:41.975Z,87.16
2022-12-31T05:43:16.741Z,87.00
2022-12-31T05:43:50.366Z,86.84
2022-12-31T05:44:22.444Z,87.31
2022-12-31T05:44:57.177Z,87.28
2022-12-31T05:45:31.165Z,86.80
2022-12-31T05:46:07.538Z,87.12
2022-12-31T05:46:39.804Z,86.85
2022-12-31T05:47:15.047Z,87.16
2022-12-31T05:47:49.915Z,87.07
2022-12-31T05:48:22.389Z,87.20
2022-12-31T05:48:57.138Z,87.14
2022-12-31T05:49:29.233Z,87.04
2022-12-31T05:50:01.424Z,87.22
2022-12-31T05:50:36.125Z,87.12
2022-12-31T05:51:09.429Z,87.24
2022-12-31T05:51:41.671Z,87.04
2022-12-31T05:52:16.511Z,87.31
2022-12-31T05:52:48.806Z,87.47
2022-12-31T05:53:20.935Z,87.63
2022-12-31T05:53:55.720Z,87.47
2022-12-31T05:54:27.890Z,87.30
2022-12-31T05:55:00.037Z,87.75
2022-12-31T05:55:34.762Z,87.39
2022-12-31T05:56:07.117Z,87.36
2022-12-31T05:56:39.244Z,87.45
2022-12-31T05:57:14.170Z,87.80
2022-12-31T05:57:46.317Z,87.62
2022-12-31T05:58:21.318Z,87.60
2022-12-31T05:58:53.506Z,87.47
2022-12-31T05:59:25.799Z,87.67
2022-12-31T05:59:57.977Z,87.53
2022-12-31T06:00:32.643Z,87.66
2022-12-31T06:01:05.145Z,87.91
2022-12-31T06:01:37.603Z,87.78
2022-12-31T06:02:12.431Z,87.54
2022-12-31T06:02:47.234Z,87.91
2022-12-31T06:03:22.253Z,88.07
2022-12-31T06:03:55.421Z,87.79
2022-12-31T06:04:27.768Z,87.92
2022-12-31T06:05:03.026Z,88.03
2022-12-31T06:05:35.189Z,88.08
2022-12-31T06:06:10.840Z,87.88
2022-12-31T06:06:43.087Z,87.68
2022-12-31T06:07:16.518Z,87.97
2022-12-31T06:07:51.207Z,87.89
2022-12-31T06:08:24.178Z,87.70
2022-12-31T06:08:56.312Z,87.79
2022-12-31T06:09:31.001Z,88.01
2022-12-31T06:10:03.192Z,87.96
2022-12-31T06:10:37.899Z,88.14
2022-12-31T06:11:10.096Z,88.04
2022-12-31T06:11:42.335Z,87.80
2022-12-31T06:12:17.180Z,87.97
2022-12-31T06:12:49.276Z,87.98
2022-12-31T06:13:21.362Z,87.96
2022-12-31T06:13:56.201Z,87.84
2022-12-31T06:14:28.301Z,87.94
2022-12-31T06:15:00.663Z,88.08
2022-12-31T06:15:40.438Z,87.64
2022-12-31T06:16:13.026Z,88.06
2022-12-31T06:16:45.220Z,88.21
2022-12-31T06:17:20.732Z,88.18
2022-12-31T06:17:55.498Z,87.80
2022-12-31T06:18:27.570Z,88.15
2022-12-31T06:19:02.553Z,87.99
2022-12-31T06:19:34.777Z,88.00
2022-12-31T06:20:12.848Z,88.14
2022-12-31T06:20:47.938Z,87.87
2022-12-31T06:21:21.461Z,88.17
2022-12-31T06:21:53.565Z,87.83
2022-12-31T06:22:28.430Z,87.81
2022-12-31T06:23:00.528Z,88.14
2022-12-31T06:23:32.667Z,87.81
2022-12-31T06:24:08.202Z,87.79
2022-12-31T06:24:40.330Z,88.07
2022-12-31T06:25:15.121Z,88.16
2022-12-31T06:25:47.213Z,87.86
2022-12-31T06:26:19.307Z,88.18
2022-12-31T06:26:54.010Z,87.91
2022-12-31T06:27:26.164Z,88.04
2022-12-31T06:27:58.341Z,87.95
2022-12-31T06:28:35.823Z,87.69
2022-12-31T06:29:08.086Z,87.93
2022-12-31T06:29:40.393Z,88.21
2022-12-31T06:30:16.508Z,88.15
2022-12-31T06:30:49.037Z,88.23
2022-12-31T06:31:21.276Z,88.25
2022-12-31T06:31:53.402Z,88.16
2022-12-31T06:32:28.173Z,88.01
2022-12-31T06:33:02.983Z,87.90
2022-12-31T06:33:35.706Z,87.99
2022-12-31T06:34:10.575Z,88.05
2022-12-31T06:34:42.664Z,88.34
2022-12-31T06:35:17.980Z,88.24
2022-12-31T06:35:55.141Z,88.22
2022-12-31T06:36:27.290Z,88.25
2022-12-31T06:37:02.379Z,87.96
2022-12-31T06:37:34.837Z,87.91
2022-12-31T06:38:06.977Z,88.08
2022-12-31T06:38:43.330Z,88.13
2022-12-31T06:39:15.470Z,88.35
2022-12-31T06:39:47.784Z,88.17
2022-12-31T06:40:25.464Z,88.14
2022-12-31T06:40:57.559Z,88.01
2022-12-31T06:41:29.664Z,87.86
2022-12-31T06:42:01.844Z,88.20
2022-12-31T06:42:36.520Z,88.31
2022-12-31T06:43:08.653Z,88.06
2022-12-31T06:43:41.536Z,87.97
2022-12-31T06:44:16.412Z,88.17
2022-12-31T06:44:49.059Z,87.95
2022-12-31T06:45:21.280Z,87.92
2022-12-31T06:45:55.977Z,87.85
2022-12-31T06:46:28.085Z,88.08
2022-12-31T06:47:00.333Z,87.51
2022-12-31T06:47:35.152Z,87.95
2022-12-31T06:48:10.038Z,87.88
2022-12-31T06:48:44.734Z,87.78
2022-12-31T06:49:19.729Z,87.84
2022-12-31T06:49:52.319Z,87.66
2022-12-31T06:50:24.470Z,87.81
2022-12-31T06:50:59.334Z,88.08
2022-12-31T06:51:32.938Z,87.81
2022-12-31T06:52:05.380Z,87.91
2022-12-31T06:52:40.157Z,87.66
2022-12-31T06:53:12.346Z,87.90
2022-12-31T06:53:44.880Z,87.43
2022-12-31T06:54:19.621Z,87.60
2022-12-31T06:54:52.357Z,87.67
2022-12-31T06:55:25.627Z,87.68
2022-12-31T06:56:00.993Z,87.60
2022-12-31T06:56:34.991Z,87.63
2022-12-31T06:57:12.136Z,87.31
2022-12-31T06:57:44.829Z,87.41
2022-12-31T06:58:18.464Z,87.35
2022-12-31T06:58:54.196Z,87.75
2022-12-31T06:59:29.541Z,87.65
2022-12-31T07:00:05.177Z,87.35
2022-12-31T07:00:37.674Z,87.66
2022-12-31T07:01:27.559Z,87.34
2022-12-31T07:02:20.046Z,87.20
2022-12-31T07:03:19.310Z,87.60
2022-12-31T07:04:01.264Z,87.64
2022-12-31T07:05:01.779Z,87.52
2022-12-31T07:05:45.456Z,87.63
2022-12-31T07:06:29.241Z,87.66
2022-12-31T07:07:08.224Z,87.36
2022-12-31T07:07:50.659Z,87.33
2022-12-31T07:08:40.867Z,87.23
2022-12-31T07:09:22.325Z,87.28
2022-12-31T07:10:01.058Z,87.60
2022-12-31T07:10:44.028Z,87.18
2022-12-31T07:11:21.262Z,87.37
2022-12-31T07:12:00.854Z,87.61
2022-12-31T07:12:52.283Z,87.44
2022-12-31T07:13:42.808Z,87.63
2022-12-31T07:14:29.917Z,87.37
2022-12-31T07:15:08.431Z,87.56
2022-12-31T07:15:50.509Z,87.76
2022-12-31T07:16:37.499Z,87.52
2022-12-31T07:17:24.180Z,87.46
2022-12-31T07:18:09.408Z,87.66
2022-12-31T07:18:48.103Z,87.49
2022-12-31T07:19:31.922Z,87.44
2022-12-31T07:20:09.024Z,87.77
2022-12-31T07:20:41.950Z,87.85
2022-12-31T07:21:19.054Z,87.50
2022-12-31T07:21:53.405Z,87.63
2022-12-31T07:22:26.504Z,87.31
2022-12-31T07:23:01.809Z,87.49
2022-12-31T07:23:34.683Z,87.61
2022-12-31T07:24:11.379Z,87.38
2022-12-31T07:24:44.700Z,87.35
2022-12-31T07:25:18.535Z,87.38
2022-12-31T07:25:59.212Z,87.63
2022-12-31T07:26:52.630Z,87.53
2022-12-31T07:27:44.850Z,87.22
2022-12-31T07:28:28.483Z,87.20
2022-12-31T07:29:12.069Z,87.30
2022-12-31T07:30:00.808Z,87.02
2022-12-31T07:30:41.949Z,87.42
2022-12-31T07:31:19.297Z,87.17
2022-12-31T07:32:02.201Z,87.46
2022-12-31T07:32:56.500Z,87.21
2022-12-31T07:33:43.742Z,87.43
2022-12-31T07:34:28.604Z,87.48
2022-12-31T07:35:09.698Z,87.56
2022-12-31T07:35:53.556Z,87.66
2022-12-31T07:36:49.431Z,87.39
2022-12-31T07:37:36.441Z,87.81
2022-12-31T07:38:18.496Z,87.41
2022-12-31T07:38:59.478Z,87.45
2022-12-31T07:39:41.934Z,87.41
2022-12-31T07:40:19.035Z,87.30